Terminal Aerodrome Forecast
Issued by NWS

Home | Current Version | Previous Version | Text Only | Print | Product List | Glossary On
Versions: 1 2 3 4 5 6 7 8 9 10 11 12
000
FTAK31 PANC 222327
TAFADL
TAF
PADL 222327Z 2300/2324 21008KT P6SM SCT080
     FM230800 18004KT P6SM BKN025 OVC040
     FM231200 VRB03KT P6SM SCT008 BKN009
     FM231700 12008KT 5SM -RA BR OVC015=

USA.gov is the U.S. government's official web portal to all federal, state and local government web resources and services.